createdAt,value
2018-02-02T00:01:58.317Z,98907.09
2018-02-02T00:04:25.782Z,98896.59
2018-02-02T00:06:53.235Z,98901.96
2018-02-02T00:09:20.696Z,98903.42
2018-02-02T00:11:48.157Z,98896.45
2018-02-02T00:14:15.646Z,98890.36
2018-02-02T00:16:43.088Z,98888.37
2018-02-02T00:19:10.584Z,98890.60
2018-02-02T00:21:38.035Z,98896.41
2018-02-02T00:24:05.505Z,98907.61
2018-02-02T00:26:32.952Z,98914.59
2018-02-02T00:29:00.399Z,98917.88
2018-02-02T00:31:27.872Z,98916.83
2018-02-02T00:33:55.317Z,98935.80
2018-02-02T00:36:22.807Z,98936.64
2018-02-02T00:38:50.259Z,98932.84
2018-02-02T00:41:17.726Z,98931.47
2018-02-02T00:43:45.167Z,98921.10
2018-02-02T00:46:15.628Z,98917.07
2018-02-02T00:48:43.080Z,98921.75
2018-02-02T00:51:16.100Z,98916.84
2018-02-02T00:53:43.601Z,98921.13
2018-02-02T00:56:11.044Z,98914.38
2018-02-02T00:58:38.518Z,98910.88
2018-02-02T01:01:05.966Z,98916.25
2018-02-02T01:03:33.456Z,98912.56
2018-02-02T01:06:00.893Z,98913.66
2018-02-02T01:08:28.409Z,98911.67
2018-02-02T01:10:55.852Z,98913.52
2018-02-02T01:13:23.296Z,98917.47
2018-02-02T01:15:50.753Z,98921.88
2018-02-02T01:18:18.203Z,98928.00
2018-02-02T01:20:45.662Z,98931.02
2018-02-02T01:23:13.150Z,98940.22
2018-02-02T01:25:40.621Z,98947.24
2018-02-02T01:28:08.076Z,98944.39
2018-02-02T01:30:35.548Z,98947.52
2018-02-02T01:33:02.994Z,98950.35
2018-02-02T01:35:30.489Z,98958.86
2018-02-02T01:37:57.944Z,98960.00
2018-02-02T01:40:25.397Z,98951.69
2018-02-02T01:42:52.856Z,98949.61
2018-02-02T01:45:20.305Z,98953.18
2018-02-02T01:47:47.843Z,98961.10
2018-02-02T01:50:15.308Z,98960.79
2018-02-02T01:52:42.903Z,98964.94
2018-02-02T01:55:10.351Z,98968.34
2018-02-02T01:57:37.812Z,98961.91
2018-02-02T02:00:05.278Z,98964.54
2018-02-02T02:02:32.727Z,98969.33
2018-02-02T02:05:00.201Z,98969.50
2018-02-02T02:07:27.714Z,98971.92
2018-02-02T02:09:55.172Z,98964.88
2018-02-02T02:12:22.707Z,98962.11
2018-02-02T02:14:50.235Z,98961.16
2018-02-02T02:17:17.681Z,98965.67
2018-02-02T02:19:45.367Z,98952.35
2018-02-02T02:22:12.814Z,98956.84
2018-02-02T02:24:40.251Z,98961.87
2018-02-02T02:27:07.702Z,98958.98
2018-02-02T02:29:35.254Z,98953.59
2018-02-02T02:32:02.734Z,98960.31
2018-02-02T02:34:30.189Z,98950.74
2018-02-02T02:36:57.637Z,98954.83
2018-02-02T02:39:25.137Z,98946.50
2018-02-02T02:41:52.687Z,98946.64
2018-02-02T02:44:20.176Z,98952.73
2018-02-02T02:46:47.636Z,98938.73
2018-02-02T02:49:15.085Z,98948.26
2018-02-02T02:51:42.598Z,98951.26
2018-02-02T02:54:10.112Z,98947.17
2018-02-02T02:56:37.564Z,98949.37
2018-02-02T02:59:05.105Z,98951.36
2018-02-02T03:01:32.545Z,98946.50
2018-02-02T03:03:59.994Z,98942.70
2018-02-02T03:06:27.454Z,98945.83
2018-02-02T03:08:54.908Z,98948.99
2018-02-02T03:11:22.436Z,98955.52
2018-02-02T03:13:49.877Z,98953.30
2018-02-02T03:16:17.346Z,98951.50
2018-02-02T03:18:44.864Z,98962.85
2018-02-02T03:21:12.331Z,98959.31
2018-02-02T03:23:39.805Z,98959.61
2018-02-02T03:26:07.249Z,98962.16
2018-02-02T03:28:34.758Z,98962.16
2018-02-02T03:31:02.232Z,98963.00
2018-02-02T03:33:29.684Z,98970.72
2018-02-02T03:35:57.137Z,98965.62
2018-02-02T03:38:24.593Z,98961.30
2018-02-02T03:40:52.037Z,98965.54
2018-02-02T03:43:19.485Z,98966.59
2018-02-02T03:45:46.928Z,98963.88
2018-02-02T03:48:14.399Z,98973.38
2018-02-02T03:50:41.850Z,98978.19
2018-02-02T03:53:09.361Z,98981.48
2018-02-02T03:55:36.821Z,98982.50
2018-02-02T03:58:04.294Z,98986.47
2018-02-02T04:00:31.775Z,98986.48
2018-02-02T04:02:59.229Z,98983.52
2018-02-02T04:05:26.670Z,98985.94
2018-02-02T04:07:54.188Z,98987.67
2018-02-02T04:10:21.635Z,98991.48
2018-02-02T04:12:49.119Z,98990.00
2018-02-02T04:15:16.584Z,98987.06
2018-02-02T04:17:44.023Z,98984.51
2018-02-02T04:20:11.538Z,98983.94
2018-02-02T04:22:39.028Z,98991.06
2018-02-02T04:25:06.482Z,98987.16
2018-02-02T04:27:33.936Z,98991.54
2018-02-02T04:30:01.409Z,98993.44
2018-02-02T04:32:28.857Z,98987.66
2018-02-02T04:35:04.954Z,98987.37
2018-02-02T04:37:32.413Z,98982.86
2018-02-02T04:39:59.860Z,98985.16
2018-02-02T04:42:27.373Z,98991.55
2018-02-02T04:44:54.812Z,99001.98
2018-02-02T04:47:22.260Z,98994.84
2018-02-02T04:49:49.767Z,98994.20
2018-02-02T04:52:17.243Z,98995.61
2018-02-02T04:54:44.728Z,98995.93
2018-02-02T04:57:12.165Z,99000.05
2018-02-02T04:59:39.637Z,98999.76
2018-02-02T05:02:07.150Z,98996.83
2018-02-02T05:04:34.813Z,98993.48
2018-02-02T05:07:02.272Z,98986.47
2018-02-02T05:09:29.734Z,98976.47
2018-02-02T05:11:57.180Z,98977.44
2018-02-02T05:14:24.637Z,98983.67
2018-02-02T05:16:52.170Z,98979.35
2018-02-02T05:19:19.642Z,98979.87
2018-02-02T05:21:47.097Z,98982.39
2018-02-02T05:24:14.621Z,98991.84
2018-02-02T05:26:42.096Z,98993.36
2018-02-02T05:29:09.766Z,98993.50
2018-02-02T05:31:37.289Z,98985.89
2018-02-02T05:34:04.747Z,98987.81
2018-02-02T05:36:32.223Z,98976.09
2018-02-02T05:38:59.712Z,98980.27
2018-02-02T05:41:27.187Z,98986.97
2018-02-02T05:43:54.638Z,98988.68
2018-02-02T05:46:22.116Z,98993.22
2018-02-02T05:48:49.576Z,98998.19
2018-02-02T05:51:17.919Z,98993.94
2018-02-02T05:53:45.445Z,98994.05
2018-02-02T05:56:12.892Z,99003.59
2018-02-02T05:58:40.382Z,99000.93
2018-02-02T06:01:07.866Z,99011.08
2018-02-02T06:03:35.642Z,99014.67
2018-02-02T06:06:03.099Z,99016.31
2018-02-02T06:08:30.580Z,99017.67
2018-02-02T06:10:58.149Z,99018.84
2018-02-02T06:13:25.626Z,99011.84
2018-02-02T06:15:53.096Z,99014.92
2018-02-02T06:18:20.536Z,99015.75
2018-02-02T06:20:47.989Z,99012.53
2018-02-02T06:23:15.445Z,99018.30
2018-02-02T06:25:42.909Z,99014.96
2018-02-02T06:28:10.448Z,99013.72
2018-02-02T06:30:37.898Z,99016.38
2018-02-02T06:33:05.472Z,99018.69
2018-02-02T06:35:32.927Z,99012.98
2018-02-02T06:38:00.417Z,99016.73
2018-02-02T06:40:27.865Z,99017.52
2018-02-02T06:42:55.321Z,99014.06
2018-02-02T06:45:22.855Z,99018.73
2018-02-02T06:47:50.311Z,99024.95
2018-02-02T06:50:17.772Z,99025.70
2018-02-02T06:52:45.252Z,99027.23
2018-02-02T06:55:12.736Z,99021.80
2018-02-02T06:57:40.177Z,99024.52
2018-02-02T07:00:07.690Z,99025.27
2018-02-02T07:02:35.164Z,99027.01
2018-02-02T07:05:02.630Z,99024.11
2018-02-02T07:07:30.172Z,99028.34
2018-02-02T07:09:57.630Z,99035.80
2018-02-02T07:12:25.107Z,99036.01
2018-02-02T07:14:52.557Z,99045.40
2018-02-02T07:17:20.062Z,99042.24
2018-02-02T07:19:47.581Z,99045.84
2018-02-02T07:22:15.121Z,99054.67
2018-02-02T07:24:42.557Z,99058.20
2018-02-02T07:27:10.046Z,99050.44
2018-02-02T07:29:37.523Z,99057.05
2018-02-02T07:32:04.969Z,99056.95
2018-02-02T07:34:32.437Z,99058.73
2018-02-02T07:36:59.882Z,99055.01
2018-02-02T07:39:27.350Z,99052.37
2018-02-02T07:41:54.797Z,99051.22
2018-02-02T07:44:22.332Z,99061.00
2018-02-02T07:46:49.769Z,99057.70
2018-02-02T07:49:17.223Z,99055.44
2018-02-02T07:51:44.685Z,99055.30
2018-02-02T07:54:12.131Z,99054.64
2018-02-02T07:56:39.591Z,99056.11
2018-02-02T07:59:07.059Z,99059.95
2018-02-02T08:01:34.625Z,99051.58
2018-02-02T08:04:02.072Z,99052.64
2018-02-02T08:06:29.544Z,99059.83
2018-02-02T08:08:57.336Z,99055.85
2018-02-02T08:11:24.821Z,99058.30
2018-02-02T08:13:52.269Z,99047.47
2018-02-02T08:16:19.705Z,99047.75
2018-02-02T08:18:47.170Z,99038.73
2018-02-02T08:21:14.630Z,99039.58
2018-02-02T08:23:42.080Z,99043.60
2018-02-02T08:26:09.545Z,99037.22
2018-02-02T08:28:37.019Z,99038.23
2018-02-02T08:31:04.458Z,99040.16
2018-02-02T08:33:31.920Z,99046.05
2018-02-02T08:35:59.382Z,99051.48
2018-02-02T08:38:26.846Z,99043.77
2018-02-02T08:40:54.314Z,99041.70
2018-02-02T08:43:21.761Z,99046.80
2018-02-02T08:45:49.255Z,99044.00
2018-02-02T08:48:16.704Z,99040.83
2018-02-02T08:50:44.160Z,99045.00
2018-02-02T08:53:11.616Z,99046.42
2018-02-02T08:55:39.064Z,99039.76
2018-02-02T08:58:06.557Z,99047.80
2018-02-02T09:00:34.012Z,99046.95
2018-02-02T09:03:01.512Z,99038.18
2018-02-02T09:05:28.956Z,99040.70
2018-02-02T09:07:56.444Z,99039.00
2018-02-02T09:10:23.905Z,99047.02
2018-02-02T09:12:51.374Z,99046.08
2018-02-02T09:15:18.815Z,99046.34
2018-02-02T09:17:46.285Z,99049.14
2018-02-02T09:20:13.772Z,99056.43
2018-02-02T09:22:41.216Z,99060.23
2018-02-02T09:25:08.689Z,99058.81
2018-02-02T09:27:35.608Z,99058.55
2018-02-02T09:30:03.068Z,99060.00
2018-02-02T09:32:30.521Z,99055.34
2018-02-02T09:34:57.996Z,99051.65
2018-02-02T09:37:25.451Z,99055.22
2018-02-02T09:39:52.908Z,99056.25
2018-02-02T09:42:20.359Z,99059.12
2018-02-02T09:44:47.797Z,99052.59
2018-02-02T09:47:15.274Z,99066.28
2018-02-02T09:49:42.718Z,99060.53
2018-02-02T09:52:10.172Z,99058.28
2018-02-02T09:54:37.717Z,99050.83
2018-02-02T09:57:05.244Z,99062.97
2018-02-02T09:59:32.807Z,99049.28
2018-02-02T10:02:00.269Z,99073.93
2018-02-02T10:04:27.718Z,99050.36
2018-02-02T10:06:55.164Z,99042.61
2018-02-02T10:09:22.693Z,99050.77
2018-02-02T10:11:50.258Z,99052.02
2018-02-02T10:14:17.832Z,99044.17
2018-02-02T10:16:45.285Z,99055.51
2018-02-02T10:19:12.749Z,99036.88
2018-02-02T10:21:40.187Z,99039.61
2018-02-02T10:24:07.670Z,99031.36
2018-02-02T10:26:35.124Z,99028.41
2018-02-02T10:29:02.595Z,99026.45
2018-02-02T10:31:30.052Z,99029.30
2018-02-02T10:33:57.559Z,99029.98
2018-02-02T10:36:25.029Z,99017.59
2018-02-02T10:38:52.498Z,99024.33
2018-02-02T10:41:19.958Z,99011.68
2018-02-02T10:43:47.414Z,99005.06
2018-02-02T10:46:14.879Z,99023.61
2018-02-02T10:48:42.326Z,99009.20
2018-02-02T10:51:09.830Z,99018.55
2018-02-02T10:53:37.281Z,99019.70
2018-02-02T10:56:04.747Z,99014.27
2018-02-02T10:58:32.210Z,99002.97
2018-02-02T11:01:05.570Z,99004.45
2018-02-02T11:03:50.807Z,99010.04
2018-02-02T11:06:18.256Z,98997.71
2018-02-02T11:08:45.699Z,98986.52
2018-02-02T11:11:13.157Z,98993.94
2018-02-02T11:13:40.630Z,98988.05
2018-02-02T11:16:08.081Z,98980.93
2018-02-02T11:18:35.542Z,98985.88
2018-02-02T11:21:02.980Z,98980.66
2018-02-02T11:23:30.456Z,98984.30
2018-02-02T11:25:57.896Z,98984.66
2018-02-02T11:28:25.391Z,98998.20
2018-02-02T11:30:52.845Z,98988.41
2018-02-02T11:33:20.308Z,98985.56
2018-02-02T11:35:47.767Z,98981.38
2018-02-02T11:38:15.223Z,98978.31
2018-02-02T11:40:42.699Z,98977.91
2018-02-02T11:43:10.142Z,98970.47
2018-02-02T11:45:37.596Z,98961.52
2018-02-02T11:48:05.075Z,98975.53
2018-02-02T11:50:32.529Z,98958.67
2018-02-02T11:53:00.021Z,98967.16
2018-02-02T11:55:27.469Z,98968.89
2018-02-02T11:57:54.920Z,98958.31
2018-02-02T12:00:22.404Z,98955.92
2018-02-02T12:02:49.864Z,98960.35
2018-02-02T12:05:17.328Z,98949.08
2018-02-02T12:07:44.801Z,98948.35
2018-02-02T12:10:12.241Z,98945.91
2018-02-02T12:12:39.695Z,98951.70
2018-02-02T12:15:07.175Z,98955.86
2018-02-02T12:17:34.633Z,98945.86
2018-02-02T12:20:03.941Z,98933.75
2018-02-02T12:22:37.130Z,98933.21
2018-02-02T12:28:18.371Z,98919.95
2018-02-02T12:30:51.552Z,98913.30
2018-02-02T12:33:24.605Z,98917.50
2018-02-02T12:36:08.759Z,98921.08
2018-02-02T12:38:36.232Z,98911.34
2018-02-02T12:41:03.686Z,98911.59
2018-02-02T12:43:31.209Z,98915.15
2018-02-02T12:45:58.661Z,98908.02
2018-02-02T12:48:37.840Z,98913.35
2018-02-02T12:51:05.291Z,98911.66
2018-02-02T12:53:32.736Z,98916.81
2018-02-02T12:56:00.244Z,98918.32
2018-02-02T12:58:27.696Z,98916.01
2018-02-02T13:00:55.162Z,98925.20
2018-02-02T13:03:22.607Z,98925.44
2018-02-02T13:05:50.081Z,98926.19
2018-02-02T13:08:17.512Z,98923.84
2018-02-02T13:10:44.973Z,98914.33
2018-02-02T13:13:12.436Z,98914.71
2018-02-02T13:15:39.877Z,98917.68
2018-02-02T13:18:07.345Z,98923.11
2018-02-02T13:20:34.809Z,98918.36
2018-02-02T13:23:02.269Z,98919.16
2018-02-02T13:25:29.982Z,98916.88
2018-02-02T13:27:57.471Z,98923.52
2018-02-02T13:30:24.912Z,98914.28
2018-02-02T13:32:52.449Z,98917.30
2018-02-02T13:35:19.895Z,98914.95
2018-02-02T13:37:47.395Z,98916.35
2018-02-02T13:40:14.806Z,98919.94
2018-02-02T13:42:42.282Z,98916.93
2018-02-02T13:45:09.737Z,98900.75
2018-02-02T13:47:37.186Z,98904.66
2018-02-02T13:50:04.653Z,98911.95
2018-02-02T13:52:32.099Z,98914.77
2018-02-02T13:54:59.606Z,98920.94
2018-02-02T13:57:27.048Z,98919.06
2018-02-02T13:59:54.510Z,98922.20
2018-02-02T14:02:21.953Z,98920.63
2018-02-02T14:04:49.408Z,98924.55
2018-02-02T14:07:16.846Z,98924.03
2018-02-02T14:09:44.291Z,98932.34
2018-02-02T14:12:11.753Z,98931.48
2018-02-02T14:14:39.209Z,98938.50
2018-02-02T14:17:06.701Z,98946.27
2018-02-02T14:19:34.131Z,98946.59
2018-02-02T14:22:01.588Z,98942.91
2018-02-02T14:24:29.042Z,98952.25
2018-02-02T14:26:56.534Z,98942.71
2018-02-02T14:29:23.979Z,98951.27
2018-02-02T14:31:51.417Z,98945.41
2018-02-02T14:34:18.869Z,98951.53
2018-02-02T14:36:46.362Z,98947.91
2018-02-02T14:39:13.825Z,98947.14
2018-02-02T14:41:41.260Z,98944.36
2018-02-02T14:44:08.712Z,98946.66
2018-02-02T14:46:36.172Z,98940.03
2018-02-02T14:49:03.673Z,98949.87
2018-02-02T14:51:31.123Z,98940.27
2018-02-02T14:53:58.577Z,98938.58
2018-02-02T14:56:26.027Z,98947.05
2018-02-02T14:58:53.538Z,98944.66
2018-02-02T15:01:21.012Z,98955.52
2018-02-02T15:03:48.451Z,98962.53
2018-02-02T15:06:16.027Z,98959.53
2018-02-02T15:08:43.523Z,98957.14
2018-02-02T15:11:10.955Z,98960.08
2018-02-02T15:13:38.404Z,98965.43
2018-02-02T15:16:06.196Z,98964.33
2018-02-02T15:18:33.643Z,98973.80
2018-02-02T15:21:01.089Z,98973.82
2018-02-02T15:23:28.981Z,98974.91
2018-02-02T15:25:56.472Z,98984.77
2018-02-02T15:28:23.926Z,98978.00
2018-02-02T15:30:51.364Z,98975.11
2018-02-02T15:33:18.853Z,98970.34
2018-02-02T15:35:46.297Z,98976.50
2018-02-02T15:38:13.759Z,98971.61
2018-02-02T15:40:41.301Z,98974.52
2018-02-02T15:43:08.740Z,98972.80
2018-02-02T15:45:36.208Z,98974.83
2018-02-02T15:48:03.682Z,98975.75
2018-02-02T15:50:31.138Z,98976.78
2018-02-02T15:52:58.585Z,98979.44
2018-02-02T15:55:26.040Z,98982.87
2018-02-02T15:57:53.475Z,98981.14
2018-02-02T16:00:20.955Z,98985.13
2018-02-02T16:02:48.595Z,98981.95
2018-02-02T16:05:16.033Z,98990.27
2018-02-02T16:07:43.490Z,98993.48
2018-02-02T16:10:10.936Z,98988.02
2018-02-02T16:12:38.387Z,98986.42
2018-02-02T16:15:05.860Z,98986.17
2018-02-02T16:17:33.417Z,98986.43
2018-02-02T16:20:00.882Z,98980.96
2018-02-02T16:22:28.315Z,98979.52
2018-02-02T16:24:55.799Z,98987.59
2018-02-02T16:27:23.245Z,98989.06
2018-02-02T16:29:50.730Z,98995.69
2018-02-02T16:32:18.210Z,98990.38
2018-02-02T16:34:45.699Z,98997.20
2018-02-02T16:37:13.132Z,98995.77
2018-02-02T16:39:40.572Z,99004.77
2018-02-02T16:42:08.044Z,99002.52
2018-02-02T16:44:35.947Z,99001.95
2018-02-02T16:47:03.392Z,99002.10
2018-02-02T16:49:30.855Z,99007.29
2018-02-02T16:51:58.510Z,99009.02
2018-02-02T16:54:25.960Z,99005.41
2018-02-02T16:56:53.417Z,99011.11
2018-02-02T16:59:20.870Z,99012.98
2018-02-02T17:01:48.315Z,99012.81
2018-02-02T17:04:15.765Z,99015.21
2018-02-02T17:06:43.207Z,99023.88
2018-02-02T17:09:10.670Z,99019.65
2018-02-02T17:11:38.122Z,99028.94
2018-02-02T17:14:05.598Z,99021.61
2018-02-02T17:16:33.122Z,99021.09
2018-02-02T17:19:00.621Z,99024.53
2018-02-02T17:21:28.074Z,99018.68
2018-02-02T17:23:55.564Z,99018.95
2018-02-02T17:26:23.045Z,99021.34
2018-02-02T17:28:50.501Z,99023.58
2018-02-02T17:31:18.006Z,99026.00
2018-02-02T17:33:45.471Z,99024.69
2018-02-02T17:36:12.922Z,99030.25
2018-02-02T17:38:40.463Z,99033.70
2018-02-02T17:41:07.933Z,99027.98
2018-02-02T17:43:35.389Z,99031.42
2018-02-02T17:46:02.838Z,99032.37
2018-02-02T17:48:30.399Z,99038.88
2018-02-02T17:50:57.858Z,99035.94
2018-02-02T17:53:25.306Z,99038.06
2018-02-02T17:55:52.766Z,99034.89
2018-02-02T17:58:20.283Z,99048.69
2018-02-02T18:00:53.390Z,99040.33
2018-02-02T18:03:20.832Z,99040.58
2018-02-02T18:05:48.295Z,99034.34
2018-02-02T18:08:15.763Z,99050.70
2018-02-02T18:10:43.231Z,99050.53
2018-02-02T18:13:10.677Z,99045.64
2018-02-02T18:15:38.176Z,99047.36
2018-02-02T18:18:05.630Z,99047.91
2018-02-02T18:20:33.170Z,99051.37
2018-02-02T18:23:00.637Z,99049.51
2018-02-02T18:25:28.116Z,99046.88
2018-02-02T18:27:55.624Z,99043.28
2018-02-02T18:30:23.077Z,99043.03
2018-02-02T18:32:50.543Z,99045.55
2018-02-02T18:35:18.000Z,99044.89
2018-02-02T18:37:45.471Z,99048.23
2018-02-02T18:40:13.041Z,99044.91
2018-02-02T18:42:40.498Z,99051.16
2018-02-02T18:45:07.981Z,99051.31
2018-02-02T18:47:35.423Z,99049.31
2018-02-02T18:50:03.010Z,99056.09
2018-02-02T18:52:30.521Z,99047.34
2018-02-02T18:54:57.989Z,99052.75
2018-02-02T18:57:25.519Z,99053.83
2018-02-02T18:59:53.012Z,99056.89
2018-02-02T19:02:20.476Z,99055.41
2018-02-02T19:04:47.972Z,99048.37
2018-02-02T19:07:15.506Z,99052.92
2018-02-02T19:09:42.960Z,99053.17
2018-02-02T19:12:10.441Z,99051.45
2018-02-02T19:14:37.889Z,99043.22
2018-02-02T19:17:05.385Z,99054.37
2018-02-02T19:19:32.919Z,99050.27
2018-02-02T19:22:00.428Z,99052.77
2018-02-02T19:24:28.011Z,99038.96
2018-02-02T19:26:55.504Z,99038.29
2018-02-02T19:29:22.971Z,99040.95
2018-02-02T19:31:50.524Z,99031.13
2018-02-02T19:34:18.051Z,99032.97
2018-02-02T19:36:45.501Z,99037.50
2018-02-02T19:39:13.023Z,99037.12
2018-02-02T19:41:40.479Z,99029.15
2018-02-02T19:44:07.961Z,99031.27
2018-02-02T19:46:35.412Z,99029.91
2018-02-02T19:49:02.922Z,99022.11
2018-02-02T19:51:30.445Z,99023.44
2018-02-02T19:53:57.960Z,99016.92
2018-02-02T19:56:25.499Z,99017.59
2018-02-02T19:58:53.036Z,99021.84
2018-02-02T20:01:20.517Z,99016.27
2018-02-02T20:03:48.097Z,99024.47
2018-02-02T20:06:15.551Z,99025.17
2018-02-02T20:08:43.095Z,99021.45
2018-02-02T20:11:10.589Z,99021.70
2018-02-02T20:13:38.056Z,99018.65
2018-02-02T20:16:05.557Z,99022.91
2018-02-02T20:18:33.093Z,99018.65
2018-02-02T20:21:00.585Z,99024.35
2018-02-02T20:23:28.087Z,99020.13
2018-02-02T20:25:55.544Z,99024.37
2018-02-02T20:28:22.997Z,99027.81
2018-02-02T20:30:50.452Z,99029.02
2018-02-02T20:33:17.889Z,99027.80
2018-02-02T20:35:45.357Z,99033.54
2018-02-02T20:38:12.852Z,99033.12
2018-02-02T20:40:40.304Z,99033.91
2018-02-02T20:43:07.780Z,99029.93
2018-02-02T20:45:35.220Z,99037.77
2018-02-02T20:48:02.676Z,99035.52
2018-02-02T20:50:30.171Z,99036.70
2018-02-02T20:52:57.650Z,99034.33
2018-02-02T20:55:25.092Z,99031.93
2018-02-02T20:57:52.556Z,99033.55
2018-02-02T21:00:20.111Z,99025.05
2018-02-02T21:02:51.332Z,99029.56
2018-02-02T21:05:18.828Z,99028.87
2018-02-02T21:07:46.345Z,99022.52
2018-02-02T21:10:14.231Z,99023.59
2018-02-02T21:12:41.734Z,99023.42
2018-02-02T21:15:09.242Z,99017.87
2018-02-02T21:17:36.753Z,99025.03
2018-02-02T21:20:04.215Z,99023.45
2018-02-02T21:22:31.665Z,99023.47
2018-02-02T21:24:59.204Z,99018.94
2018-02-02T21:27:26.682Z,99020.15
2018-02-02T21:29:54.195Z,99020.13
2018-02-02T21:32:21.663Z,99016.16
2018-02-02T21:34:49.161Z,99012.05
2018-02-02T21:37:16.586Z,99014.31
2018-02-02T21:39:44.036Z,99018.02
2018-02-02T21:42:11.520Z,99012.69
2018-02-02T21:44:39.063Z,99015.61
2018-02-02T21:47:06.576Z,99012.16
2018-02-02T21:49:34.112Z,99012.56
2018-02-02T21:52:01.567Z,99010.16
2018-02-02T21:54:29.089Z,99002.49
2018-02-02T21:56:56.574Z,99003.16
2018-02-02T21:59:24.074Z,99000.88
2018-02-02T22:01:51.576Z,99006.57
2018-02-02T22:04:19.043Z,99005.41
2018-02-02T22:06:46.496Z,99009.92
2018-02-02T22:09:13.967Z,99007.66
2018-02-02T22:11:41.480Z,99024.65
2018-02-02T22:14:08.954Z,99016.55
2018-02-02T22:16:36.521Z,99008.20
2018-02-02T22:19:03.981Z,99015.77
2018-02-02T22:21:31.447Z,99018.58
2018-02-02T22:23:58.953Z,99020.42
2018-02-02T22:26:26.393Z,99026.52
2018-02-02T22:28:53.862Z,99023.61
2018-02-02T22:31:21.317Z,99024.80
2018-02-02T22:33:48.800Z,99019.91
2018-02-02T22:36:16.273Z,99029.84
2018-02-02T22:38:43.724Z,99025.75
2018-02-02T22:41:11.235Z,99023.88
2018-02-02T22:43:38.721Z,99021.91
2018-02-02T22:46:06.187Z,99019.75
2018-02-02T22:48:33.630Z,99014.47
2018-02-02T22:51:01.376Z,99019.49
2018-02-02T22:53:28.865Z,99018.05
2018-02-02T22:55:56.403Z,99020.42
2018-02-02T22:58:23.911Z,99020.70
2018-02-02T23:00:51.356Z,99024.39
2018-02-02T23:03:18.841Z,99022.16
2018-02-02T23:05:46.276Z,99033.42
2018-02-02T23:08:13.745Z,99028.91
2018-02-02T23:10:41.192Z,99023.88
2018-02-02T23:13:08.671Z,99021.48
2018-02-02T23:15:36.239Z,99022.42
2018-02-02T23:18:03.719Z,99018.83
2018-02-02T23:20:31.176Z,99020.01
2018-02-02T23:22:58.628Z,99017.63
2018-02-02T23:25:26.089Z,99013.11
2018-02-02T23:27:53.535Z,99014.04
2018-02-02T23:30:20.999Z,99011.12
2018-02-02T23:32:48.440Z,99009.11
2018-02-02T23:35:15.902Z,99011.92
2018-02-02T23:37:43.361Z,99011.52
2018-02-02T23:40:10.858Z,99008.06
2018-02-02T23:42:38.429Z,99007.78
2018-02-02T23:45:05.891Z,99003.39
2018-02-02T23:47:33.419Z,99004.45
2018-02-02T23:50:00.871Z,98999.16
2018-02-02T23:52:28.350Z,99001.83
2018-02-02T23:54:55.805Z,99003.00
2018-02-02T23:57:23.243Z,98998.63
2018-02-02T23:59:50.711Z,99000.10
